Time;durP1;ratioP1;P1;durP2;ratioP2;P2;SDS_P1;SDS_P2;PMS_P1;PMS_P2;Temp;Humidity;BMP_temperature;BMP_pressure;BME280_temperature;BME280_humidity;BME280_pressure;Samples;Min_cycle;Max_cycle;Signal;HPM_P1;HPM_P2
2022/10/31 00:05:22;;;;;;;16.90;13.00;;;14.80;99.90;;;;;;2616138;54;20138;-77
2022/10/31 00:11:10;;;;;;;15.90;13.43;;;14.80;99.90;;;;;;2616641;39;20525;-80
2022/10/31 00:16:58;;;;;;;20.93;14.27;;;14.60;99.90;;;;;;2617180;54;20138;-77
2022/10/31 00:22:45;;;;;;;18.73;13.03;;;14.60;99.90;;;;;;2617345;54;20135;-77
2022/10/31 00:28:33;;;;;;;26.57;12.03;;;14.50;99.90;;;;;;2618546;54;20133;-83
2022/10/31 00:34:21;;;;;;;20.07;14.30;;;14.30;99.90;;;;;;2619053;54;20399;-83
2022/10/31 00:40:10;;;;;;;20.40;13.97;;;14.10;99.90;;;;;;2620135;54;20183;-83
2022/10/31 00:45:57;;;;;;;17.40;13.00;;;13.90;99.90;;;;;;2619429;54;20383;-83
2022/10/31 00:51:45;;;;;;;20.50;13.30;;;13.80;99.90;;;;;;2619283;54;20235;-77
2022/10/31 00:57:33;;;;;;;19.43;13.67;;;13.80;99.90;;;;;;2617422;54;20143;-82
2022/10/31 01:03:25;;;;;;;19.90;13.10;;;13.60;99.90;;;;;;2616878;54;20135;-81
2022/10/31 01:09:13;;;;;;;22.60;13.93;;;13.50;99.90;;;;;;2617852;54;20403;-80
2022/10/31 01:15:01;;;;;;;19.87;14.30;;;13.70;99.90;;;;;;2617833;54;20186;-80
2022/10/31 01:27:34;;;;;;;17.90;13.50;;;13.80;99.90;;;;;;2617390;54;20500;-80
2022/10/31 01:33:22;;;;;;;18.03;14.13;;;14.10;99.90;;;;;;2618576;54;20932;-81
2022/10/31 01:39:13;;;;;;;15.50;13.53;;;14.20;99.90;;;;;;2619515;39;20209;-79
2022/10/31 01:45:02;;;;;;;26.57;13.80;;;14.30;99.90;;;;;;2618684;54;20415;-81
2022/10/31 01:50:53;;;;;;;24.33;16.40;;;14.60;99.90;;;;;;2618389;54;20923;-81
2022/10/31 01:56:44;;;;;;;16.87;13.03;;;14.60;99.90;;;;;;2618072;54;20359;-80
2022/10/31 02:02:32;;;;;;;17.07;14.50;;;14.60;99.90;;;;;;2618120;54;20911;-82
2022/10/31 02:15:00;;;;;;;17.53;12.63;;;14.60;99.90;;;;;;2618699;39;21023;-81
2022/10/31 02:46:52;;;;;;;17.97;13.97;;;13.90;99.90;;;;;;2615626;54;20452;-77
2022/10/31 02:52:40;;;;;;;19.63;13.50;;;14.10;99.90;;;;;;2615692;54;20387;-79
2022/10/31 02:58:32;;;;;;;25.93;14.33;;;14.20;99.90;;;;;;2614984;54;20178;-77
2022/10/31 03:04:24;;;;;;;25.17;13.47;;;14.10;99.90;;;;;;2616375;54;20939;-79
2022/10/31 03:10:17;;;;;;;19.97;13.90;;;14.00;99.90;;;;;;2616626;54;20391;-79
2022/10/31 03:27:07;;;;;;;19.80;13.53;;;14.20;99.90;;;;;;2616565;54;20403;-77
2022/10/31 03:32:59;;;;;;;25.43;14.43;;;14.10;99.90;;;;;;2616217;54;20458;-77
2022/10/31 03:38:47;;;;;;;19.50;14.80;;;14.00;99.90;;;;;;2616075;54;20419;-76
2022/10/31 03:44:38;;;;;;;23.60;14.73;;;13.80;99.90;;;;;;2615712;54;20399;-81
2022/10/31 03:56:56;;;;;;;18.30;13.50;;;13.40;99.90;;;;;;2616878;54;20390;-81
2022/10/31 04:09:17;;;;;;;20.43;14.00;;;12.80;99.90;;;;;;2619126;54;20387;-84
2022/10/31 04:15:07;;;;;;;23.20;16.20;;;12.70;99.90;;;;;;2618902;54;20387;-83
2022/10/31 04:21:04;;;;;;;21.30;15.90;;;12.80;99.90;;;;;;2617969;54;20402;-82
2022/10/31 04:26:53;;;;;;;21.10;13.77;;;12.60;99.90;;;;;;2618055;54;20378;-84
2022/10/31 04:32:41;;;;;;;21.90;15.37;;;12.60;99.90;;;;;;2617896;54;20363;-82
2022/10/31 04:38:29;;;;;;;23.10;14.80;;;12.60;99.90;;;;;;2617678;54;20169;-82
2022/10/31 04:44:17;;;;;;;16.60;14.40;;;12.50;99.90;;;;;;2617953;54;20141;-83
2022/10/31 04:50:06;;;;;;;32.80;18.93;;;12.50;99.90;;;;;;2618131;54;20600;-84
2022/10/31 04:55:54;;;;;;;21.77;16.90;;;12.60;99.90;;;;;;2617825;54;20410;-82
2022/10/31 05:01:42;;;;;;;23.77;15.33;;;12.60;99.90;;;;;;2618299;54;20358;-80
2022/10/31 05:07:30;;;;;;;26.50;17.20;;;12.50;99.90;;;;;;2618007;39;20205;-80
2022/10/31 05:13:17;;;;;;;23.30;15.10;;;12.30;99.90;;;;;;2617558;54;20134;-81
2022/10/31 05:19:05;;;;;;;22.37;14.00;;;12.20;99.90;;;;;;2617602;54;20127;-80
2022/10/31 05:24:53;;;;;;;23.07;14.97;;;12.10;99.90;;;;;;2616948;54;20182;-84
2022/10/31 05:30:41;;;;;;;24.50;15.90;;;11.90;99.90;;;;;;2618801;54;20535;-84
2022/10/31 05:36:29;;;;;;;25.77;14.37;;;11.90;99.90;;;;;;2617876;54;20150;-84
2022/10/31 05:42:16;;;;;;;20.17;16.40;;;11.80;99.90;;;;;;2616805;54;20133;-77
2022/10/31 05:48:05;;;;;;;19.93;15.60;;;11.70;99.90;;;;;;2617260;54;20253;-77
2022/10/31 05:53:52;;;;;;;25.13;16.80;;;11.80;99.90;;;;;;2616054;54;20403;-78
2022/10/31 05:59:40;;;;;;;26.57;16.30;;;11.70;99.90;;;;;;2616634;54;20146;-79
2022/10/31 06:05:29;;;;;;;22.90;14.07;;;11.70;99.90;;;;;;2616512;54;20147;-80
2022/10/31 06:11:17;;;;;;;28.23;18.73;;;11.80;99.90;;;;;;2616209;54;20358;-80
2022/10/31 06:17:06;;;;;;;23.60;15.43;;;11.80;99.90;;;;;;2616466;54;20403;-79
2022/10/31 06:22:54;;;;;;;23.17;16.10;;;11.70;99.90;;;;;;2612969;54;20439;-77
2022/10/31 06:28:42;;;;;;;25.23;16.10;;;11.60;99.90;;;;;;2617108;54;20201;-77
2022/10/31 06:34:30;;;;;;;26.80;18.00;;;11.70;99.90;;;;;;2616978;54;20431;-77
2022/10/31 06:40:18;;;;;;;28.43;17.13;;;11.60;99.90;;;;;;2616120;54;20126;-77
2022/10/31 06:46:06;;;;;;;27.57;17.63;;;11.70;99.90;;;;;;2616156;54;20359;-80
2022/10/31 06:51:55;;;;;;;23.47;17.30;;;11.90;99.90;;;;;;2616048;54;20123;-76
2022/10/31 06:57:48;;;;;;;30.77;19.27;;;11.90;99.90;;;;;;2614165;54;20414;-77
2022/10/31 07:03:36;;;;;;;20.80;16.33;;;12.00;99.90;;;;;;2615294;54;20430;-79
2022/10/31 07:09:24;;;;;;;28.60;18.17;;;12.10;99.90;;;;;;2614166;54;20259;-77
2022/10/31 07:15:12;;;;;;;25.50;17.17;;;12.30;99.90;;;;;;2617776;54;20126;-80
2022/10/31 07:20:59;;;;;;;22.60;15.30;;;12.30;99.90;;;;;;2614912;54;20230;-76
2022/10/31 07:30:12;;;;;;;23.50;18.10;;;12.50;99.90;;;;;;2616005;54;20484;-78
2022/10/31 07:36:00;;;;;;;35.53;19.23;;;12.60;99.90;;;;;;2615828;54;20914;-77
2022/10/31 07:41:48;;;;;;;24.83;17.77;;;12.70;99.90;;;;;;2616526;54;20414;-78
2022/10/31 07:47:42;;;;;;;22.10;16.30;;;12.90;99.90;;;;;;2616773;54;20150;-78
2022/10/31 07:53:30;;;;;;;29.13;18.70;;;13.00;99.90;;;;;;2617379;54;20499;-77
2022/10/31 07:59:18;;;;;;;33.03;19.13;;;13.10;99.90;;;;;;2616539;54;20154;-76
2022/10/31 08:05:06;;;;;;;24.47;17.17;;;13.30;99.90;;;;;;2617622;39;20524;-78
2022/10/31 08:07:37;;;;;;;21.83;16.63;;;13.40;99.90;;;;;;2617366;54;20395;-76
2022/10/31 08:10:03;;;;;;;20.53;17.97;;;13.60;99.90;;;;;;2616813;54;20400;-77
2022/10/31 08:15:51;;;;;;;21.53;17.30;;;13.70;99.90;;;;;;2616319;54;20415;-77
2022/10/31 08:21:39;;;;;;;23.80;17.70;;;13.60;99.90;;;;;;2616420;54;20434;-77
2022/10/31 08:30:49;;;;;;;28.23;16.80;;;14.40;99.90;;;;;;2617442;54;20407;-78
2022/10/31 08:36:37;;;;;;;25.10;16.50;;;14.80;99.90;;;;;;2616118;54;20659;-79
2022/10/31 08:42:25;;;;;;;20.47;18.10;;;15.50;99.90;;;;;;2620720;54;20133;-85
2022/10/31 08:48:15;;;;;;;23.17;20.67;;;15.80;99.90;;;;;;2616176;54;20130;-76
2022/10/31 08:54:03;;;;;;;22.90;19.10;;;17.50;99.90;;;;;;2615984;54;21035;-76
2022/10/31 08:59:50;;;;;;;24.80;21.27;;;18.10;99.90;;;;;;2616633;54;20938;-76
2022/10/31 09:05:38;;;;;;;22.17;19.90;;;19.00;99.90;;;;;;2616477;54;20131;-76
2022/10/31 09:11:26;;;;;;;30.03;22.17;;;19.30;99.90;;;;;;2615055;54;20427;-75
2022/10/31 09:17:14;;;;;;;24.90;22.40;;;19.20;99.90;;;;;;2614990;54;20146;-76
2022/10/31 09:26:21;;;;;;;27.13;20.80;;;18.70;99.90;;;;;;2614400;54;20407;-77
2022/10/31 09:28:46;;;;;;;24.83;22.13;;;18.70;99.90;;;;;;2614443;54;20395;-76
2022/10/31 09:34:34;;;;;;;26.60;23.27;;;19.00;99.90;;;;;;2617574;54;20154;-86
2022/10/31 09:40:25;;;;;;;26.80;23.30;;;19.30;99.90;;;;;;2618291;54;20659;-85
2022/10/31 09:59:26;;;;;;;29.97;23.47;;;17.60;99.90;;;;;;2617261;54;20422;-84
2022/10/31 10:18:19;;;;;;;31.37;23.67;;;18.10;99.90;;;;;;2615587;54;20470;-80
2022/10/31 10:40:46;;;;;;;30.33;24.60;;;19.50;99.90;;;;;;2615852;54;20406;-84
2022/10/31 10:59:26;;;;;;;27.60;22.77;;;18.80;99.90;;;;;;2617221;39;20858;-84
2022/10/31 11:11:45;;;;;;;25.50;21.60;;;18.70;99.90;;;;;;2616784;54;20392;-84
2022/10/31 11:17:39;;;;;;;25.77;21.87;;;18.90;99.90;;;;;;2616170;54;20138;-86
2022/10/31 11:23:28;;;;;;;24.33;20.63;;;18.80;99.90;;;;;;2617289;54;20762;-84
2022/10/31 11:33:23;;;;;;;26.67;21.20;;;18.80;99.90;;;;;;2617126;54;20411;-83
2022/10/31 11:36:25;;;;;;;25.70;21.20;;;18.80;99.90;;;;;;2618224;39;20832;-85
2022/10/31 11:38:53;;;;;;;27.10;20.30;;;19.00;99.90;;;;;;2617488;54;20422;-85
2022/10/31 11:44:43;;;;;;;22.13;19.87;;;19.00;99.90;;;;;;2616903;54;20375;-85
2022/10/31 11:50:38;;;;;;;23.43;20.97;;;19.20;99.90;;;;;;2616431;54;20990;-78
2022/10/31 11:56:26;;;;;;;22.47;18.00;;;19.70;99.90;;;;;;2617044;54;20798;-78
2022/10/31 12:02:18;;;;;;;26.10;20.73;;;20.00;99.90;;;;;;2617310;31;20867;-78
2022/10/31 12:08:11;;;;;;;27.30;19.27;;;19.50;99.90;;;;;;2617742;39;20725;-78
2022/10/31 12:14:00;;;;;;;19.40;17.47;;;20.50;99.90;;;;;;2616381;54;20956;-80
2022/10/31 12:20:12;;;;;;;20.73;18.07;;;20.50;99.90;;;;;;2616766;54;20218;-80
2022/10/31 12:49:07;;;;;;;18.93;17.10;;;22.40;91.20;;;;;;2616029;54;20414;-80
2022/10/31 13:20:55;;;;;;;19.10;15.60;;;21.80;71.70;;;;;;2613914;54;20388;-76
2022/10/31 13:26:54;;;;;;;16.83;15.13;;;22.10;68.40;;;;;;2615043;54;20951;-77
2022/10/31 13:36:09;;;;;;;18.43;13.77;;;21.80;73.80;;;;;;2614470;54;20415;-81
2022/10/31 13:48:18;;;;;;;16.30;14.40;;;21.70;71.00;;;;;;2618270;54;20407;-84
2022/10/31 14:00:45;;;;;;;14.23;13.03;;;21.80;65.80;;;;;;2618374;54;20936;-85
2022/10/31 14:06:40;;;;;;;14.53;13.13;;;22.20;60.70;;;;;;2619499;54;20399;-82
2022/10/31 14:12:37;;;;;;;17.37;13.10;;;22.10;64.90;;;;;;2617088;54;20416;-84
2022/10/31 14:29:24;;;;;;;15.87;12.67;;;22.10;62.60;;;;;;2616936;54;20923;-81
2022/10/31 14:35:16;;;;;;;14.20;12.90;;;23.50;53.90;;;;;;2615038;54;21006;-86
2022/10/31 14:47:32;;;;;;;29.40;13.70;;;21.90;45.10;;;;;;2618478;54;20900;-85
2022/10/31 14:53:23;;;;;;;12.90;11.93;;;21.00;50.40;;;;;;2618308;54;20468;-83
2022/10/31 14:59:15;;;;;;;14.60;12.60;;;22.70;46.90;;;;;;2618664;54;20407;-85
2022/10/31 15:05:08;;;;;;;14.47;11.93;;;21.30;48.40;;;;;;2616417;54;20383;-80
2022/10/31 15:10:56;;;;;;;14.10;12.83;;;21.70;49.90;;;;;;2616018;54;20427;-81
2022/10/31 15:16:44;;;;;;;15.03;13.33;;;20.80;53.20;;;;;;2616935;54;20139;-80
2022/10/31 15:22:32;;;;;;;13.77;12.47;;;20.20;58.30;;;;;;2615323;54;20146;-78
2022/10/31 15:28:24;;;;;;;14.43;12.97;;;20.10;61.50;;;;;;2614856;54;20698;-78
2022/10/31 15:31:25;;;;;;;17.70;12.57;;;20.00;63.90;;;;;;2615838;47;20428;-78
2022/10/31 15:33:51;;;;;;;14.07;12.70;;;19.80;66.00;;;;;;2614775;39;20831;-78
2022/10/31 15:39:39;;;;;;;15.03;12.53;;;19.70;72.40;;;;;;2615083;54;20407;-78
2022/10/31 15:45:30;;;;;;;14.00;12.77;;;19.50;71.50;;;;;;2614807;39;20734;-78
2022/10/31 15:57:33;;;;;;;21.47;13.53;;;19.30;77.70;;;;;;2616213;54;20354;-81
2022/10/31 16:09:35;;;;;;;19.10;13.17;;;18.80;89.00;;;;;;2616748;54;21298;-80
2022/10/31 16:15:23;;;;;;;19.17;12.40;;;18.30;98.80;;;;;;2616203;54;20154;-80
2022/10/31 16:21:11;;;;;;;17.83;12.73;;;18.30;96.00;;;;;;2616575;54;20158;-80
2022/10/31 16:27:05;;;;;;;19.20;12.40;;;18.10;97.50;;;;;;2615965;54;20495;-80
2022/10/31 16:36:28;;;;;;;15.17;11.50;;;18.10;94.20;;;;;;2616775;54;20554;-76
2022/10/31 16:38:57;;;;;;;13.13;11.80;;;18.20;92.60;;;;;;2615538;39;20866;-75
2022/10/31 16:41:24;;;;;;;14.87;11.13;;;18.10;92.90;;;;;;2616308;54;20431;-80
2022/10/31 16:47:17;;;;;;;15.77;12.77;;;18.10;91.50;;;;;;2617683;54;20440;-79
2022/10/31 16:53:06;;;;;;;14.20;11.80;;;17.80;92.10;;;;;;2618165;54;20429;-81
2022/10/31 16:58:53;;;;;;;12.97;11.80;;;17.70;92.00;;;;;;2617048;54;20391;-80
2022/10/31 17:04:41;;;;;;;12.87;11.57;;;17.80;89.60;;;;;;2617431;54;20130;-81
2022/10/31 17:10:29;;;;;;;11.43;10.03;;;17.70;90.30;;;;;;2616595;54;20294;-80
2022/10/31 17:16:17;;;;;;;16.40;11.63;;;17.60;88.40;;;;;;2617410;54;20130;-81
2022/10/31 17:22:05;;;;;;;12.83;11.57;;;17.50;84.60;;;;;;2616322;54;20690;-81
2022/10/31 17:27:52;;;;;;;15.20;10.90;;;17.40;83.10;;;;;;2614934;54;20151;-77
2022/10/31 17:37:02;;;;;;;12.90;11.60;;;17.50;77.40;;;;;;2614136;54;20379;-77
2022/10/31 17:39:28;;;;;;;14.43;12.53;;;17.40;76.40;;;;;;2613753;54;20423;-77
2022/10/31 17:45:16;;;;;;;13.07;11.83;;;17.50;71.90;;;;;;2615425;54;20147;-78
2022/10/31 17:51:06;;;;;;;17.53;11.43;;;17.40;70.00;;;;;;2616798;54;20130;-77
2022/10/31 17:56:54;;;;;;;15.27;13.00;;;17.10;73.90;;;;;;2615656;54;20988;-78
2022/10/31 18:02:43;;;;;;;14.20;11.80;;;16.50;91.30;;;;;;2612451;54;20169;-77
2022/10/31 18:08:33;;;;;;;13.80;12.47;;;16.10;99.90;;;;;;2615527;54;20407;-78
2022/10/31 18:14:20;;;;;;;14.13;12.87;;;16.00;99.90;;;;;;2615563;54;20367;-77
2022/10/31 18:20:09;;;;;;;12.00;10.90;;;16.60;86.40;;;;;;2615386;54;20145;-77
2022/10/31 18:25:57;;;;;;;16.30;12.53;;;17.20;71.40;;;;;;2613958;54;20491;-76
2022/10/31 18:31:47;;;;;;;11.50;10.53;;;17.30;59.50;;;;;;2614680;54;20143;-78
2022/10/31 18:37:35;;;;;;;17.83;11.40;;;18.00;49.40;;;;;;2615126;39;20450;-76
2022/10/31 18:43:22;;;;;;;12.60;11.50;;;18.00;50.20;;;;;;2614848;54;20680;-79
2022/10/31 18:49:10;;;;;;;16.10;11.53;;;18.00;50.70;;;;;;2615515;54;20178;-77
2022/10/31 18:54:58;;;;;;;12.53;11.27;;;17.90;51.30;;;;;;2616046;54;20134;-78
2022/10/31 19:00:46;;;;;;;10.97;10.17;;;18.00;51.60;;;;;;2613518;54;20130;-76
2022/10/31 19:03:13;;;;;;;12.40;11.50;;;17.80;52.10;;;;;;2632340;36;20823;-76
2022/10/31 19:05:39;;;;;;;12.20;11.00;;;17.70;53.40;;;;;;2614458;54;20167;-76
2022/10/31 19:11:27;;;;;;;12.63;11.43;;;17.40;55.50;;;;;;2615242;54;20515;-78
2022/10/31 19:17:15;;;;;;;12.90;11.60;;;17.40;56.00;;;;;;2613628;54;20145;-78
2022/10/31 19:23:02;;;;;;;16.17;14.57;;;17.30;57.10;;;;;;2616901;54;20270;-77
2022/10/31 19:28:51;;;;;;;15.97;13.97;;;17.50;55.60;;;;;;2616795;54;20150;-77
2022/10/31 19:34:39;;;;;;;13.97;12.70;;;17.50;55.50;;;;;;2616365;39;20810;-78
2022/10/31 19:40:27;;;;;;;15.10;13.30;;;17.20;57.00;;;;;;2617005;54;20130;-77
2022/10/31 19:46:17;;;;;;;21.60;18.10;;;17.00;59.00;;;;;;2617031;54;20130;-77
2022/10/31 19:52:04;;;;;;;17.20;15.50;;;16.90;60.40;;;;;;2618838;54;20339;-84
2022/10/31 19:57:52;;;;;;;14.23;12.87;;;16.50;68.20;;;;;;2618804;39;20494;-77
2022/10/31 20:03:42;;;;;;;14.10;12.90;;;16.20;82.40;;;;;;2616632;39;20508;-76
2022/10/31 20:09:29;;;;;;;13.77;12.40;;;16.40;72.50;;;;;;2616344;54;21004;-77
2022/10/31 20:15:17;;;;;;;13.63;11.90;;;16.40;75.90;;;;;;2618274;54;20142;-85
2022/10/31 20:21:17;;;;;;;13.40;10.30;;;16.70;72.30;;;;;;2619083;54;20122;-76
2022/10/31 20:27:06;;;;;;;12.50;11.23;;;17.00;66.00;;;;;;2616641;54;20387;-76
2022/10/31 20:37:00;;;;;;;11.03;10.00;;;16.90;69.30;;;;;;2616665;54;20944;-75
2022/10/31 20:42:47;;;;;;;12.10;11.00;;;16.80;70.80;;;;;;2616558;54;20447;-80
2022/10/31 20:48:35;;;;;;;11.53;10.60;;;17.00;67.90;;;;;;2617212;54;20133;-80
2022/10/31 20:54:24;;;;;;;12.67;11.47;;;17.20;66.10;;;;;;2617185;54;20158;-80
2022/10/31 21:00:12;;;;;;;12.80;11.67;;;17.60;58.20;;;;;;2617581;54;20492;-79
2022/10/31 21:06:01;;;;;;;12.60;11.50;;;17.80;55.50;;;;;;2617164;54;20415;-80
2022/10/31 21:11:49;;;;;;;12.13;11.23;;;17.80;56.60;;;;;;2616604;54;20383;-81
2022/10/31 21:17:37;;;;;;;11.53;10.40;;;17.80;56.90;;;;;;2617833;54;20658;-82
2022/10/31 21:23:25;;;;;;;12.30;11.10;;;17.90;55.50;;;;;;2617637;54;20130;-79
2022/10/31 21:29:14;;;;;;;11.43;10.60;;;17.80;56.90;;;;;;2617253;54;20122;-81
2022/10/31 21:32:28;;;;;;;13.00;12.00;;;18.00;55.70;;;;;;2616338;54;20411;-82
2022/10/31 21:34:53;;;;;;;12.93;11.67;;;17.90;56.70;;;;;;2615989;54;20428;-83
2022/10/31 21:40:41;;;;;;;11.60;10.70;;;17.80;58.00;;;;;;2616884;54;20154;-83
2022/10/31 21:46:30;;;;;;;12.60;11.17;;;17.90;58.50;;;;;;2617390;54;20399;-81
2022/10/31 21:52:18;;;;;;;12.60;11.60;;;17.70;60.70;;;;;;2615728;54;20411;-76
2022/10/31 21:58:06;;;;;;;11.90;10.90;;;17.80;60.60;;;;;;2616987;54;20166;-78
2022/10/31 22:03:54;;;;;;;12.80;11.67;;;17.70;62.20;;;;;;2617279;54;20123;-82
2022/10/31 22:09:46;;;;;;;12.47;11.47;;;17.80;60.90;;;;;;2618580;54;20387;-81
2022/10/31 22:15:34;;;;;;;11.83;11.00;;;17.70;63.60;;;;;;2617871;54;20407;-81
2022/10/31 22:21:23;;;;;;;12.43;11.57;;;17.80;63.20;;;;;;2618082;54;20137;-81
2022/10/31 22:27:11;;;;;;;12.17;11.17;;;17.80;64.00;;;;;;2618164;54;21081;-82
2022/10/31 22:37:02;;;;;;;12.63;11.13;;;17.90;62.80;;;;;;2616752;54;20452;-80
2022/10/31 22:42:49;;;;;;;13.00;11.80;;;17.80;64.00;;;;;;2618197;54;20411;-83
2022/10/31 22:48:40;;;;;;;12.73;11.40;;;17.80;64.00;;;;;;2617451;54;20138;-79
2022/10/31 22:54:29;;;;;;;12.73;11.53;;;17.90;62.80;;;;;;2615894;39;20775;-77
2022/10/31 23:00:18;;;;;;;12.57;11.67;;;17.90;62.70;;;;;;2615366;54;20375;-77
2022/10/31 23:06:09;;;;;;;10.60;9.80;;;17.90;62.90;;;;;;2616448;54;20427;-78
2022/10/31 23:14:07;;;;;;;13.50;11.50;;;17.90;62.70;;;;;;2615765;54;20515;-77
2022/10/31 23:18:04;;;;;;;11.63;10.50;;;17.80;63.10;;;;;;2615216;54;20507;-77
2022/10/31 23:23:52;;;;;;;13.13;11.43;;;18.00;61.50;;;;;;2615989;39;20565;-77
2022/10/31 23:29:48;;;;;;;11.50;10.87;;;18.10;62.20;;;;;;2613033;54;20138;-78
2022/10/31 23:35:37;;;;;;;13.17;11.43;;;18.10;61.80;;;;;;2615303;54;20407;-78
2022/10/31 23:41:25;;;;;;;12.80;11.43;;;18.30;61.40;;;;;;2616185;54;20383;-77
2022/10/31 23:47:14;;;;;;;12.30;11.40;;;18.30;60.80;;;;;;2615395;54;20123;-83
2022/10/31 23:53:01;;;;;;;12.17;10.97;;;18.40;60.80;;;;;;2616906;54;20495;-84
2022/10/31 23:58:49;;;;;;;11.20;10.40;;;18.40;60.70;;;;;;2617514;54;20158;-82
